createdAt,value
2017-10-10T00:00:45.078Z,3.87
2017-10-10T00:03:13.243Z,3.10
2017-10-10T00:05:42.188Z,2.60
2017-10-10T00:08:11.408Z,4.20
2017-10-10T00:10:39.844Z,4.63
2017-10-10T00:13:08.004Z,3.07
2017-10-10T00:15:36.173Z,3.83
2017-10-10T00:18:04.349Z,3.83
2017-10-10T00:20:32.501Z,2.40
2017-10-10T00:23:01.459Z,3.03
2017-10-10T00:25:29.629Z,2.50
2017-10-10T00:27:57.791Z,2.30
2017-10-10T00:30:25.954Z,3.70
2017-10-10T00:32:54.140Z,2.60
2017-10-10T00:35:22.295Z,3.70
2017-10-10T00:37:50.452Z,4.17
2017-10-10T00:40:18.618Z,2.53
2017-10-10T00:42:46.770Z,7.80
2017-10-10T00:45:15.779Z,3.10
2017-10-10T00:47:43.935Z,3.07
2017-10-10T00:50:12.868Z,6.13
2017-10-10T00:52:41.032Z,9.57
2017-10-10T00:55:09.522Z,2.60
2017-10-10T00:57:37.670Z,3.15
2017-10-10T01:00:05.840Z,2.80
2017-10-10T01:02:34.012Z,4.37
2017-10-10T01:05:02.175Z,5.07
2017-10-10T01:07:31.139Z,3.87
2017-10-10T01:09:59.300Z,2.83
2017-10-10T01:12:27.747Z,3.20
2017-10-10T01:14:55.910Z,2.87
2017-10-10T01:17:24.063Z,2.77
2017-10-10T01:19:53.910Z,2.23
2017-10-10T01:22:22.066Z,3.97
2017-10-10T01:24:50.268Z,2.47
2017-10-10T01:27:18.406Z,2.30
2017-10-10T01:29:46.570Z,2.60
2017-10-10T01:32:14.746Z,2.33
2017-10-10T01:34:42.917Z,4.95
2017-10-10T01:37:11.062Z,4.60
2017-10-10T01:39:39.528Z,2.50
2017-10-10T01:42:07.685Z,2.93
2017-10-10T01:44:35.840Z,3.20
2017-10-10T01:47:04.018Z,2.57
2017-10-10T01:49:32.170Z,3.17
2017-10-10T01:52:00.339Z,2.80
2017-10-10T01:54:28.500Z,3.77
2017-10-10T01:56:57.704Z,2.80
2017-10-10T01:59:25.869Z,2.40
2017-10-10T02:01:54.021Z,2.67
2017-10-10T02:04:22.222Z,4.50
2017-10-10T02:06:50.399Z,2.37
2017-10-10T02:09:18.879Z,2.42
2017-10-10T02:11:47.037Z,5.13
2017-10-10T02:14:15.195Z,2.43
2017-10-10T02:16:43.363Z,2.90
2017-10-10T02:19:11.517Z,2.20
2017-10-10T02:21:40.514Z,2.37
2017-10-10T02:24:09.472Z,1.90
2017-10-10T02:26:37.703Z,2.30
2017-10-10T02:29:05.909Z,2.42
2017-10-10T02:31:34.092Z,2.47
2017-10-10T02:34:02.260Z,2.93
2017-10-10T02:36:30.416Z,2.70
2017-10-10T02:38:58.657Z,2.80
2017-10-10T02:41:26.835Z,3.43
2017-10-10T02:43:55.056Z,2.50
2017-10-10T02:46:23.214Z,2.43
2017-10-10T02:48:51.683Z,3.58
2017-10-10T02:51:19.867Z,3.33
2017-10-10T02:53:48.504Z,2.55
2017-10-10T02:56:17.448Z,3.10
2017-10-10T02:58:45.598Z,4.28
2017-10-10T03:01:13.771Z,2.42
2017-10-10T03:03:41.921Z,3.40
2017-10-10T03:06:10.102Z,2.40
2017-10-10T03:08:38.269Z,2.80
2017-10-10T03:11:07.211Z,2.80
2017-10-10T03:13:35.374Z,2.70
2017-10-10T03:16:03.869Z,2.50
2017-10-10T03:18:32.851Z,3.65
2017-10-10T03:21:01.039Z,2.60
2017-10-10T03:23:29.206Z,2.90
2017-10-10T03:25:57.357Z,2.60
2017-10-10T03:28:25.556Z,3.62
2017-10-10T03:30:53.727Z,2.53
2017-10-10T03:33:22.787Z,6.32
2017-10-10T03:35:51.256Z,3.30
2017-10-10T03:38:19.746Z,8.25
2017-10-10T03:40:47.907Z,3.83
2017-10-10T03:43:16.080Z,3.05
2017-10-10T03:45:44.235Z,4.20
2017-10-10T03:48:13.161Z,3.70
2017-10-10T03:50:41.334Z,3.13
2017-10-10T03:53:09.496Z,3.12
2017-10-10T03:55:37.671Z,3.43
2017-10-10T03:58:05.829Z,2.95
2017-10-10T04:00:35.051Z,3.37
2017-10-10T04:03:03.205Z,3.55
2017-10-10T04:05:31.376Z,2.57
2017-10-10T04:07:59.543Z,3.67
2017-10-10T04:10:28.477Z,5.00
2017-10-10T04:12:56.631Z,3.80
2017-10-10T04:15:24.792Z,4.40
2017-10-10T04:17:52.983Z,3.62
2017-10-10T04:20:21.138Z,3.50
2017-10-10T04:22:49.616Z,3.85
2017-10-10T04:25:17.771Z,4.13
2017-10-10T04:27:46.699Z,5.28
2017-10-10T04:30:14.892Z,4.18
2017-10-10T04:32:43.075Z,4.30
2017-10-10T04:35:11.244Z,7.25
2017-10-10T04:37:39.419Z,5.22
2017-10-10T04:40:07.590Z,3.97
2017-10-10T04:42:35.747Z,5.93
2017-10-10T04:45:03.915Z,4.43
2017-10-10T04:47:32.072Z,5.57
2017-10-10T04:50:00.522Z,4.95
2017-10-10T04:52:29.436Z,7.80
2017-10-10T04:54:57.584Z,4.90
2017-10-10T04:57:26.521Z,5.12
2017-10-10T04:59:54.674Z,8.52
2017-10-10T05:02:22.842Z,8.07
2017-10-10T05:04:50.981Z,7.07
2017-10-10T05:07:19.914Z,5.40
2017-10-10T05:09:48.067Z,4.95
2017-10-10T05:12:16.225Z,6.47
2017-10-10T05:14:45.154Z,6.55
2017-10-10T05:17:13.725Z,8.47
2017-10-10T05:19:41.874Z,6.97
2017-10-10T05:22:10.803Z,6.97
2017-10-10T05:24:38.972Z,5.95
2017-10-10T05:27:07.130Z,7.93
2017-10-10T05:29:35.332Z,7.97
2017-10-10T05:32:03.547Z,9.35
2017-10-10T05:34:32.480Z,7.55
2017-10-10T05:37:00.627Z,6.93
2017-10-10T05:39:28.841Z,9.57
2017-10-10T05:41:57.022Z,7.20
2017-10-10T05:44:25.488Z,9.07
2017-10-10T05:46:53.647Z,8.47
2017-10-10T05:49:21.834Z,7.97
2017-10-10T05:51:50.012Z,8.83
2017-10-10T05:54:18.266Z,9.63
2017-10-10T05:56:46.463Z,8.70
2017-10-10T05:59:14.612Z,7.95
2017-10-10T06:01:42.764Z,7.90
2017-10-10T06:04:11.693Z,8.88
2017-10-10T06:06:40.152Z,12.93
2017-10-10T06:09:08.315Z,8.98
2017-10-10T06:11:37.249Z,8.60
2017-10-10T06:14:05.424Z,9.65
2017-10-10T06:16:33.581Z,8.00
2017-10-10T06:19:01.838Z,8.10
2017-10-10T06:21:29.987Z,13.67
2017-10-10T06:23:58.948Z,8.65
2017-10-10T06:26:27.915Z,8.13
2017-10-10T06:28:56.354Z,10.85
2017-10-10T06:31:25.283Z,7.70
2017-10-10T06:33:53.446Z,10.50
2017-10-10T06:36:21.632Z,12.98
2017-10-10T06:38:49.813Z,11.02
2017-10-10T06:41:17.985Z,9.97
2017-10-10T06:43:46.164Z,14.02
2017-10-10T06:46:16.078Z,16.93
2017-10-10T06:48:44.234Z,9.23
2017-10-10T06:51:12.392Z,8.87
2017-10-10T06:53:40.606Z,11.77
2017-10-10T06:56:08.795Z,10.75
2017-10-10T06:58:36.965Z,11.00
2017-10-10T07:01:05.146Z,9.53
2017-10-10T07:03:33.344Z,10.68
2017-10-10T07:06:02.400Z,8.50
2017-10-10T07:08:30.587Z,10.95
2017-10-10T07:10:58.785Z,10.00
2017-10-10T07:13:27.005Z,10.93
2017-10-10T07:15:55.181Z,8.10
2017-10-10T07:18:23.330Z,9.02
2017-10-10T07:20:51.519Z,7.87
2017-10-10T07:23:19.677Z,8.52
2017-10-10T07:25:47.841Z,9.13
2017-10-10T07:28:16.040Z,11.00
2017-10-10T07:30:44.217Z,9.43
2017-10-10T07:33:12.401Z,12.18
2017-10-10T07:35:41.329Z,7.73
2017-10-10T07:38:10.266Z,6.87
2017-10-10T07:40:38.442Z,10.10
2017-10-10T07:43:06.636Z,7.55
2017-10-10T07:45:34.792Z,8.23
2017-10-10T07:48:02.996Z,8.55
2017-10-10T07:50:31.162Z,7.10
2017-10-10T07:52:59.341Z,7.62
2017-10-10T07:55:27.513Z,8.43
2017-10-10T07:57:55.694Z,6.90
2017-10-10T08:00:23.868Z,6.70
2017-10-10T08:02:52.790Z,7.28
2017-10-10T08:05:21.274Z,6.90
2017-10-10T08:07:49.435Z,7.78
2017-10-10T08:10:17.622Z,10.57
2017-10-10T08:12:45.817Z,5.72
2017-10-10T08:15:13.973Z,7.97
2017-10-10T08:17:42.150Z,8.48
2017-10-10T08:20:10.300Z,5.80
2017-10-10T08:22:38.474Z,5.80
2017-10-10T08:25:06.681Z,5.75
2017-10-10T08:27:34.872Z,5.40
2017-10-10T08:30:03.041Z,8.93
2017-10-10T08:32:31.211Z,7.28
2017-10-10T08:34:59.385Z,6.00
2017-10-10T08:37:28.321Z,5.15
2017-10-10T08:39:58.193Z,5.85
2017-10-10T08:42:26.354Z,9.38
2017-10-10T08:44:54.543Z,4.82
2017-10-10T08:47:22.695Z,4.00
2017-10-10T08:49:51.197Z,4.07
2017-10-10T08:52:19.351Z,4.63
2017-10-10T08:54:47.518Z,6.00
2017-10-10T08:57:15.714Z,5.20
2017-10-10T08:59:43.898Z,3.35
2017-10-10T09:02:12.058Z,4.80
2017-10-10T09:04:40.234Z,3.97
2017-10-10T09:07:08.414Z,4.80
2017-10-10T09:09:36.609Z,3.47
2017-10-10T09:12:05.559Z,4.70
2017-10-10T09:14:33.748Z,3.85
2017-10-10T09:17:01.920Z,3.50
2017-10-10T09:19:30.103Z,3.30
2017-10-10T09:21:58.280Z,2.80
2017-10-10T09:24:26.464Z,2.92
2017-10-10T09:26:55.391Z,3.20
2017-10-10T09:29:23.595Z,4.00
2017-10-10T09:31:51.788Z,4.37
2017-10-10T09:34:19.984Z,2.85
2017-10-10T09:36:48.935Z,3.47
2017-10-10T09:39:17.107Z,2.70
2017-10-10T09:41:45.285Z,3.30
2017-10-10T09:44:13.468Z,3.00
2017-10-10T09:46:41.652Z,4.20
2017-10-10T09:49:10.604Z,5.68
2017-10-10T09:51:38.779Z,3.37
2017-10-10T09:54:06.959Z,3.30
2017-10-10T09:56:35.145Z,3.47
2017-10-10T09:59:03.339Z,4.35
2017-10-10T10:01:31.509Z,3.27
2017-10-10T10:03:59.732Z,3.22
2017-10-10T10:06:27.932Z,6.47
2017-10-10T10:08:56.139Z,3.58
2017-10-10T10:11:25.082Z,3.53
2017-10-10T10:13:53.534Z,3.00
2017-10-10T10:16:21.704Z,5.20
2017-10-10T10:18:49.885Z,3.80
2017-10-10T10:21:18.056Z,4.73
2017-10-10T10:23:46.250Z,3.47
2017-10-10T10:26:14.510Z,3.90
2017-10-10T10:28:42.688Z,3.60
2017-10-10T10:31:10.889Z,4.67
2017-10-10T10:33:39.063Z,3.80
2017-10-10T10:36:07.265Z,3.22
2017-10-10T10:38:36.217Z,9.43
2017-10-10T10:41:04.392Z,3.20
2017-10-10T10:43:32.566Z,2.87
2017-10-10T10:46:00.740Z,2.57
2017-10-10T10:48:28.917Z,6.78
2017-10-10T10:50:57.113Z,2.80
2017-10-10T10:53:26.395Z,3.30
2017-10-10T10:55:54.570Z,3.13
2017-10-10T10:58:22.757Z,2.90
2017-10-10T11:00:51.012Z,2.70
2017-10-10T11:03:19.185Z,3.60
2017-10-10T11:05:47.363Z,4.10
2017-10-10T11:08:15.552Z,5.32
2017-10-10T11:10:43.746Z,3.00
2017-10-10T11:13:11.955Z,4.30
2017-10-10T11:15:40.201Z,3.80
2017-10-10T11:18:08.399Z,5.18
2017-10-10T11:20:36.596Z,2.53
2017-10-10T11:23:04.769Z,3.47
2017-10-10T11:25:32.950Z,3.73
2017-10-10T11:28:01.153Z,3.70
2017-10-10T11:30:30.098Z,3.13
2017-10-10T11:32:58.291Z,7.10
2017-10-10T11:35:26.482Z,3.83
2017-10-10T11:37:55.020Z,3.73
2017-10-10T11:40:23.190Z,3.20
2017-10-10T11:42:51.370Z,5.20
2017-10-10T11:45:19.574Z,3.97
2017-10-10T11:47:47.727Z,2.80
2017-10-10T11:50:15.910Z,2.80
2017-10-10T11:52:44.151Z,2.90
2017-10-10T11:55:12.366Z,3.10
2017-10-10T11:57:40.569Z,2.50
2017-10-10T12:00:09.539Z,3.30
2017-10-10T12:02:37.734Z,4.03
2017-10-10T12:05:06.668Z,2.57
2017-10-10T12:07:34.851Z,3.00
2017-10-10T12:10:03.054Z,3.43
2017-10-10T12:12:31.997Z,2.40
2017-10-10T12:15:00.185Z,3.13
2017-10-10T12:17:28.393Z,3.30
2017-10-10T12:19:57.349Z,6.57
2017-10-10T12:22:26.453Z,2.30
2017-10-10T12:24:54.644Z,3.70
2017-10-10T12:27:22.815Z,2.60
2017-10-10T12:29:50.978Z,3.20
2017-10-10T12:32:19.155Z,3.70
2017-10-10T12:34:47.347Z,2.97
2017-10-10T12:37:16.296Z,4.07
2017-10-10T12:39:44.473Z,7.47
2017-10-10T12:42:12.657Z,4.10
2017-10-10T12:44:40.834Z,6.83
2017-10-10T12:47:09.048Z,2.90
2017-10-10T12:49:37.232Z,4.22
2017-10-10T12:52:05.417Z,4.07
2017-10-10T12:54:33.585Z,3.07
2017-10-10T12:57:01.764Z,2.53
2017-10-10T12:59:29.930Z,3.33
2017-10-10T13:01:58.372Z,3.23
2017-10-10T13:04:26.542Z,3.47
2017-10-10T13:06:54.708Z,5.83
2017-10-10T13:09:22.904Z,2.70
2017-10-10T13:11:51.931Z,3.77
2017-10-10T13:14:20.129Z,3.33
2017-10-10T13:16:48.305Z,3.17
2017-10-10T13:19:16.540Z,2.77
2017-10-10T13:21:44.717Z,2.03
2017-10-10T13:24:12.917Z,3.28
2017-10-10T13:26:41.091Z,3.00
2017-10-10T13:29:09.260Z,3.40
2017-10-10T13:31:37.450Z,2.90
2017-10-10T13:34:05.628Z,2.78
2017-10-10T13:36:33.827Z,3.10
2017-10-10T13:39:02.809Z,2.60
2017-10-10T13:41:31.805Z,3.40
2017-10-10T13:44:00.738Z,4.50
2017-10-10T13:46:29.216Z,5.80
2017-10-10T13:48:57.380Z,3.00
2017-10-10T13:51:25.594Z,3.70
2017-10-10T13:53:53.774Z,2.90
2017-10-10T13:56:21.993Z,3.50
2017-10-10T13:58:50.250Z,2.67
2017-10-10T14:01:19.309Z,3.00
2017-10-10T14:03:47.531Z,2.60
2017-10-10T14:06:16.473Z,2.57
2017-10-10T14:08:45.051Z,2.27
2017-10-10T14:11:13.226Z,2.42
2017-10-10T14:13:41.417Z,3.53
2017-10-10T14:16:09.705Z,2.83
2017-10-10T14:18:38.678Z,2.40
2017-10-10T14:21:06.883Z,3.00
2017-10-10T14:23:35.095Z,3.63
2017-10-10T14:26:03.313Z,2.60
2017-10-10T14:28:31.568Z,3.50
2017-10-10T14:31:00.585Z,3.60
2017-10-10T14:33:28.758Z,3.17
2017-10-10T14:35:56.935Z,2.90
2017-10-10T14:38:25.914Z,4.00
2017-10-10T14:40:54.098Z,2.57
2017-10-10T14:43:22.325Z,2.87
2017-10-10T14:45:50.506Z,4.63
2017-10-10T14:48:18.718Z,2.27
2017-10-10T14:50:46.896Z,2.50
2017-10-10T14:53:15.135Z,4.73
2017-10-10T14:55:44.076Z,4.40
2017-10-10T14:58:12.293Z,3.20
2017-10-10T15:00:40.498Z,3.10
2017-10-10T15:03:08.689Z,2.75
2017-10-10T15:05:36.880Z,4.57
2017-10-10T15:08:05.082Z,4.65
2017-10-10T15:10:33.550Z,2.90
2017-10-10T15:13:01.777Z,16.65
2017-10-10T15:15:30.750Z,3.87
2017-10-10T15:17:59.856Z,3.35
2017-10-10T15:20:28.052Z,5.62
2017-10-10T15:22:56.238Z,4.85
2017-10-10T15:25:24.410Z,7.00
2017-10-10T15:27:53.567Z,7.12
2017-10-10T15:30:22.517Z,4.00
2017-10-10T15:32:50.733Z,4.37
2017-10-10T15:35:18.944Z,3.97
2017-10-10T15:37:47.407Z,4.00
2017-10-10T15:40:15.574Z,4.27
2017-10-10T15:42:44.542Z,5.00
2017-10-10T15:45:12.725Z,7.57
2017-10-10T15:47:40.946Z,5.35
2017-10-10T15:50:09.168Z,5.60
2017-10-10T15:52:37.383Z,6.85
2017-10-10T15:55:06.391Z,6.37
2017-10-10T15:57:34.571Z,5.82
2017-10-10T16:00:02.744Z,3.73
2017-10-10T16:02:30.967Z,4.60
2017-10-10T16:04:59.169Z,5.05
2017-10-10T16:07:28.129Z,4.10
2017-10-10T16:09:56.319Z,4.40
2017-10-10T16:12:25.278Z,4.30
2017-10-10T16:14:53.469Z,5.60
2017-10-10T16:17:22.463Z,6.23
2017-10-10T16:19:50.689Z,5.20
2017-10-10T16:22:18.868Z,5.23
2017-10-10T16:24:47.067Z,12.00
2017-10-10T16:27:15.262Z,9.20
2017-10-10T16:29:43.453Z,6.30
2017-10-10T16:32:12.400Z,10.27
2017-10-10T16:34:41.369Z,6.50
2017-10-10T16:37:09.552Z,7.30
2017-10-10T16:39:37.771Z,5.83
2017-10-10T16:42:05.978Z,8.77
2017-10-10T16:44:34.195Z,5.50
2017-10-10T16:47:03.159Z,6.10
2017-10-10T16:49:31.365Z,6.27
2017-10-10T16:52:00.483Z,4.87
2017-10-10T16:54:28.653Z,5.40
2017-10-10T16:56:56.879Z,4.90
2017-10-10T16:59:25.103Z,3.60
2017-10-10T17:01:53.329Z,5.10
2017-10-10T17:04:22.305Z,8.50
2017-10-10T17:06:50.497Z,5.30
2017-10-10T17:09:18.703Z,5.60
2017-10-10T17:11:47.057Z,5.43
2017-10-10T17:14:16.038Z,4.90
2017-10-10T17:16:44.264Z,5.70
2017-10-10T17:19:12.493Z,9.87
2017-10-10T17:21:40.675Z,8.47
2017-10-10T17:24:08.876Z,7.10
2017-10-10T17:26:37.827Z,8.33
2017-10-10T17:29:06.049Z,9.73
2017-10-10T17:31:35.349Z,9.43
2017-10-10T17:34:04.319Z,10.57
2017-10-10T17:36:32.533Z,7.80
2017-10-10T17:39:00.709Z,6.63
2017-10-10T17:41:28.892Z,7.03
2017-10-10T17:43:57.090Z,6.82
2017-10-10T17:46:25.348Z,7.37
2017-10-10T17:48:53.593Z,10.10
2017-10-10T17:51:21.801Z,7.37
2017-10-10T17:53:50.055Z,10.07
2017-10-10T17:56:18.395Z,5.50
2017-10-10T17:58:46.630Z,6.97
2017-10-10T18:01:14.995Z,5.60
2017-10-10T18:03:43.557Z,7.28
2017-10-10T18:06:12.918Z,6.10
2017-10-10T18:08:41.330Z,6.50
2017-10-10T18:11:09.575Z,7.95
2017-10-10T18:13:38.236Z,7.73
2017-10-10T18:16:06.784Z,11.70
2017-10-10T18:21:45.374Z,17.33
2017-10-10T18:24:14.414Z,9.38
2017-10-10T18:26:43.720Z,9.03
2017-10-10T18:29:12.184Z,6.90
2017-10-10T18:31:56.520Z,8.60
2017-10-10T18:34:28.923Z,6.77
2017-10-10T18:36:58.005Z,6.77
2017-10-10T18:39:26.213Z,8.60
2017-10-10T18:41:55.134Z,5.93
2017-10-10T18:44:23.765Z,11.05
2017-10-10T18:46:52.007Z,5.90
2017-10-10T18:49:34.256Z,6.33
2017-10-10T18:52:03.830Z,7.73
2017-10-10T18:54:32.073Z,4.90
2017-10-10T18:57:05.243Z,5.37
2017-10-10T18:59:36.397Z,6.63
2017-10-10T19:02:07.755Z,5.30
2017-10-10T19:04:40.500Z,6.28
2017-10-10T19:07:10.127Z,6.53
2017-10-10T19:09:39.710Z,5.13
2017-10-10T19:12:08.505Z,4.70
2017-10-10T19:14:37.101Z,7.87
2017-10-10T19:17:06.115Z,5.47
2017-10-10T19:19:36.379Z,5.37
2017-10-10T19:22:04.613Z,5.03
2017-10-10T19:24:32.825Z,6.80
2017-10-10T19:27:02.463Z,9.07
2017-10-10T19:29:30.807Z,8.00
2017-10-10T19:31:59.872Z,8.17
2017-10-10T19:34:30.701Z,5.03
2017-10-10T19:36:59.132Z,6.70
2017-10-10T19:39:27.363Z,7.18
2017-10-10T19:41:55.602Z,5.25
2017-10-10T19:44:24.297Z,5.80
2017-10-10T19:46:52.558Z,5.37
2017-10-10T19:49:20.812Z,7.00
2017-10-10T19:51:49.494Z,5.37
2017-10-10T19:54:18.441Z,4.47
2017-10-10T19:56:46.910Z,5.47
2017-10-10T19:59:15.130Z,5.23
2017-10-10T20:01:43.328Z,5.23
2017-10-10T20:04:12.657Z,6.07
2017-10-10T20:06:41.952Z,5.10
2017-10-10T20:09:10.474Z,5.47
2017-10-10T20:11:38.704Z,7.03
2017-10-10T20:14:06.945Z,5.80
2017-10-10T20:16:35.944Z,4.53
2017-10-10T20:19:04.931Z,6.65
2017-10-10T20:21:34.843Z,7.90
2017-10-10T20:24:03.069Z,6.40
2017-10-10T20:26:31.280Z,4.90
2017-10-10T20:28:59.461Z,5.00
2017-10-10T20:31:31.065Z,5.00
2017-10-10T20:33:59.624Z,7.80
2017-10-10T20:36:28.125Z,5.93
2017-10-10T20:38:57.820Z,5.43
2017-10-10T20:41:26.298Z,7.10
2017-10-10T20:43:54.487Z,5.43
2017-10-10T20:46:23.488Z,4.80
2017-10-10T20:48:52.468Z,9.50
2017-10-10T20:51:20.670Z,5.63
2017-10-10T20:53:48.887Z,5.23
2017-10-10T20:56:17.080Z,6.17
2017-10-10T20:58:45.375Z,4.70
2017-10-10T21:01:14.261Z,7.40
2017-10-10T21:03:45.240Z,5.03
2017-10-10T21:06:13.901Z,5.63
2017-10-10T21:08:42.971Z,8.98
2017-10-10T21:11:11.906Z,5.57
2017-10-10T21:13:40.095Z,5.33
2017-10-10T21:16:08.308Z,5.72
2017-10-10T21:18:39.965Z,5.60
2017-10-10T21:21:12.955Z,5.10
2017-10-10T21:23:43.596Z,4.17
2017-10-10T21:26:12.033Z,4.87
2017-10-10T21:28:42.826Z,4.57
2017-10-10T21:31:11.730Z,4.37
2017-10-10T21:33:39.952Z,5.30
2017-10-10T21:36:12.294Z,5.07
2017-10-10T21:38:40.530Z,5.00
2017-10-10T21:41:08.954Z,6.10
2017-10-10T21:43:39.486Z,8.90
2017-10-10T21:46:10.882Z,6.63
2017-10-10T21:48:39.872Z,5.47
2017-10-10T21:51:12.073Z,8.30
2017-10-10T21:53:44.486Z,5.80
2017-10-10T21:56:15.682Z,5.57
2017-10-10T21:58:44.326Z,4.73
2017-10-10T22:01:13.158Z,5.00
2017-10-10T22:03:44.139Z,7.63
2017-10-10T22:06:13.326Z,6.40
2017-10-10T22:08:44.247Z,4.40
2017-10-10T22:11:15.255Z,4.00
2017-10-10T22:13:46.436Z,5.85
2017-10-10T22:16:15.227Z,4.70
2017-10-10T22:18:46.446Z,4.80
2017-10-10T22:21:18.208Z,5.33
2017-10-10T22:23:50.079Z,9.20
2017-10-10T22:26:18.592Z,4.85
2017-10-10T22:28:46.876Z,5.43
2017-10-10T22:31:15.051Z,4.80
2017-10-10T22:33:44.845Z,5.30
2017-10-10T22:36:15.361Z,4.97
2017-10-10T22:38:47.669Z,6.37
2017-10-10T22:41:16.337Z,5.43
2017-10-10T22:43:44.502Z,4.73
2017-10-10T22:46:12.702Z,5.47
2017-10-10T22:48:41.649Z,6.50
2017-10-10T22:51:09.811Z,7.50
2017-10-10T22:53:39.179Z,5.40
2017-10-10T22:56:07.678Z,4.67
2017-10-10T22:58:37.905Z,4.70
2017-10-10T23:01:06.682Z,4.23
2017-10-10T23:03:37.041Z,4.20
2017-10-10T23:06:06.548Z,5.87
2017-10-10T23:08:40.726Z,5.30
2017-10-10T23:11:08.899Z,5.60
2017-10-10T23:13:42.266Z,4.70
2017-10-10T23:16:12.170Z,5.05
2017-10-10T23:18:40.924Z,4.53
2017-10-10T23:21:11.699Z,3.93
2017-10-10T23:23:42.683Z,3.90
2017-10-10T23:26:21.411Z,4.90
2017-10-10T23:28:49.655Z,5.21
2017-10-10T23:31:17.847Z,4.90
2017-10-10T23:33:46.799Z,4.47
2017-10-10T23:36:15.117Z,4.10
2017-10-10T23:38:44.203Z,6.53
2017-10-10T23:41:12.700Z,4.60
2017-10-10T23:43:40.869Z,5.90
2017-10-10T23:46:09.870Z,4.70
2017-10-10T23:48:40.492Z,4.23
2017-10-10T23:51:09.587Z,3.92
2017-10-10T23:53:37.768Z,5.80
2017-10-10T23:56:06.156Z,4.40
2017-10-10T23:58:36.823Z,4.45
